Latest Coastal Weather Observations for Hobart

IDT60701

Issued at 7:15 am EDT Saturday 1 November 2014 (issued every 10 minutes, with the page automatically refreshed every 10 minutes)

About coastal observations | Map of coastal stations | Coastal observations for TAS | Marine services | Other Formats
Station Details ID: 094029 Name: HOBART (ELLERSLIE ROAD) Lat: -42.89 Lon: 147.33 Height: 50.5 m
Data from the previous 72 hours. | See also: Recent months at Hobart
Date/Time
EDT
Temp

°C
Wind Pressure Rain
since 9am
mm
Weather Cloud Vis
km
Sea
Height
m
Swell
Dir
 
Speed
knots
Gust
knots
hPa Trend Height
m
Period
s
Dir
01/07:00am 13.8 NW 14 23 989.0 - 3.2 - - - - - - -
01/06:30am 13.1 NNW 13 19 988.5 - 3.2 - - - - - - -
01/06:00am 13.1 NNW 15 20 988.6 - 3.2 Recent precip. - - - - - -
01/05:30am 13.0 N 11 16 988.9 - 3.2 - - - - - - -
01/05:00am 13.2 NNW 12 17 988.9 - 2.8 - - - - - - -
01/04:30am 13.7 NW 8 16 989.4 - 1.4 - - - - - - -
01/04:00am 14.9 NW 13 22 990.6 - 0.2 - - - - - - -
01/03:30am 17.3 NW 10 17 990.8 - 0.0 - - - - - - -
01/03:00am 17.0 NW 6 9 989.9 - 0.0 - - - - - - -
01/02:30am 15.7 WNW 6 13 990.5 - 0.0 - - - - - - -
01/02:00am 15.3 WNW 4 6 990.2 - 0.0 - - - - - - -
01/01:30am 17.1 NNW 9 12 990.5 - 0.0 - - - - - - -
01/01:00am 17.2 NNW 9 14 991.0 - 0.0 - - - - - - -
01/12:30am 16.8 NNW 7 14 991.4 - 0.0 - - - - - - -
01/12:00am 16.2 NNW 3 7 991.8 - 0.0 - - - - - - -
 
Date/Time
EDT
Temp

°C
Wind Pressure Rain
since 9am
mm
Weather Cloud Vis
km
Sea
Height
m
Swell
Dir
 
Speed
knots
Gust
knots
hPa Trend Height
m
Period
s
Dir
31/11:30pm 16.2 N 5 9 992.2 - 0.0 - - - - - - -
31/11:00pm 15.5 W 3 7 992.7 - 0.0 - - - - - - -
31/10:30pm 15.9 SW 4 6 993.2 - 0.0 - - - - - - -
31/10:00pm 16.7 SSW 3 6 993.8 - 0.0 - - - - - - -
31/09:30pm 17.2 ESE 7 9 994.3 - 0.0 - - - - - - -
31/09:00pm 17.1 S 3 6 994.4 - 0.0 - - - - - - -
31/08:30pm 18.0 ESE 8 13 994.1 - 0.0 - - - - - - -
31/08:00pm 18.3 ESE 6 9 994.4 - 0.0 - - - - - - -
31/07:30pm 19.6 ESE 4 7 994.0 - 0.0 - - - - - - -
31/07:00pm 20.5 NE 7 11 994.5 - 0.0 - - - - - - -
31/06:30pm 22.6 N 8 14 994.8 - 0.0 - - - - - - -
31/06:00pm 22.9 N 13 18 995.5 - 0.0 - - - - - - -
31/05:30pm 23.4 NNW 16 24 995.7 - 0.0 - - - - - - -
31/05:00pm 22.8 NNW 13 19 996.4 - 0.0 - - - - - - -
31/04:30pm 22.8 NW 11 16 997.2 - 0.0 - - - - - - -
31/04:00pm 22.5 NW 11 16 997.9 - 0.0 - - - - - - -
31/03:30pm 21.4 NNW 13 20 998.9 - 0.0 - - - - - - -
31/03:00pm 20.7 NW 13 22 999.6 - 0.0 - - - - - - -
31/02:30pm 20.0 NW 14 21 999.8 - 0.0 - - - - - - -
31/02:00pm 20.0 NNW 18 28 1000.3 - 0.0 - - - - - - -
31/01:48pm 18.8 NNW 15 25 1000.2 - 0.0 - - - - - - -
31/01:30pm 18.9 NW 13 20 1000.4 - 0.0 - - - - - - -
31/01:00pm 18.0 NNW 14 22 1000.6 - 0.0 - - - - - - -
31/12:30pm 17.5 NNW 14 19 1001.3 - 0.0 - - - - - - -
31/12:00pm 17.0 NW 11 21 1001.6 - 0.0 - - - - - - -
31/11:30am 16.7 NNW 13 18 1001.9 - 0.0 - - - - - - -
31/11:00am 16.6 N 12 20 1002.6 - 0.0 - - - - - - -
31/10:30am 16.7 N 14 19 1002.9 - 0.0 - - - - - - -
31/10:00am 16.5 NNW 13 16 1003.5 - 0.0 - - - - - - -
31/09:30am 15.1 NNW 10 20 1003.6 - 0.0 - - - - - - -
31/09:00am 14.4 NNW 9 14 1004.1 - 0.2 - - - - - - -
31/08:30am 13.9 NNW 6 10 1004.4 - 0.2 - - - - - - -
31/08:00am 13.2 N 5 9 1004.8 - 0.2 - - - - - - -
31/07:30am 13.2 NNE 1 4 1004.8 - 0.2 - - - - - - -
31/07:00am 12.5 NE 3 5 1005.0 - 0.2 - - - - - - -
31/06:30am 12.2 N 5 7 1005.0 - 0.2 - - - - - - -
31/06:00am 11.9 N 6 11 1005.0 - 0.2 - - - - - - -
31/05:30am 11.6 NNE 7 9 1005.0 - 0.2 - - - - - - -
31/05:00am 11.5 NNE 6 8 1005.1 - 0.2 - - - - - - -
31/04:30am 11.8 NNE 6 9 1005.4 - 0.2 - - - - - - -
31/04:00am 12.0 NNE 6 8 1005.8 - 0.2 - - - - - - -
31/03:30am 11.9 NNE 4 6 1006.1 - 0.2 - - - - - - -
31/03:00am 12.0 NE 5 7 1006.2 - 0.2 - - - - - - -
31/02:30am 12.0 NNE 3 5 1006.7 - 0.2 - - - - - - -
31/02:00am 11.8 N 3 5 1007.0 - 0.2 - - - - - - -
31/01:30am 12.0 NNE 5 7 1007.4 - 0.2 - - - - - - -
31/01:00am 12.1 NNE 5 8 1007.8 - 0.2 - - - - - - -
31/12:30am 12.1 N 5 7 1008.3 - 0.2 - - - - - - -
31/12:00am 12.3 NNW 7 11 1008.4 - 0.2 - - - - - - -
 
Date/Time
EDT
Temp

°C
Wind Pressure Rain
since 9am
mm
Weather Cloud Vis
km
Sea
Height
m
Swell
Dir
 
Speed
knots
Gust
knots
hPa Trend Height
m
Period
s
Dir
30/11:30pm 12.3 N 7 11 1008.4 - 0.2 - - - - - - -
30/11:00pm 12.5 NW 7 11 1008.9 - 0.2 - - - - - - -
30/10:30pm 13.0 NNW 8 11 1008.9 - 0.2 - - - - - - -
30/10:00pm 13.3 N 7 10 1008.8 - 0.2 - - - - - - -
30/09:30pm 13.6 N 10 13 1008.8 - 0.2 - - - - - - -
30/09:00pm 13.6 N 10 16 1008.9 - 0.2 - - - - - - -
30/08:30pm 13.6 NNW 8 13 1008.6 - 0.2 - - - - - - -
30/08:00pm 13.7 NW 6 11 1008.5 - 0.2 - - - - - - -
30/07:30pm 14.1 NNW 9 15 1008.3 - 0.2 - - - - - - -
30/07:00pm 14.6 NW 9 13 1008.2 - 0.2 - - - - - - -
30/06:30pm 14.8 NNW 10 14 1007.8 - 0.2 - - - - - - -
30/06:00pm 15.2 NNW 10 14 1007.8 - 0.2 - - - - - - -
30/05:30pm 16.2 W 10 21 1007.7 - 0.2 - - - - - - -
30/05:00pm 17.5 W 7 13 1007.4 - 0.2 - - - - - - -
30/04:30pm 17.5 WNW 9 16 1007.3 - 0.2 - - - - - - -
30/04:00pm 18.1 W 12 19 1007.4 - 0.0 - - - - - - -
30/03:30pm 17.9 W 8 19 1007.1 - 0.0 - - - - - - -
30/03:00pm 15.5 ESE 5 9 1007.3 - 0.0 - - - - - - -
30/02:30pm 14.7 SE 9 11 1007.0 - 0.0 - - - - - - -
30/02:00pm 13.6 E 8 9 1007.0 - 0.0 - - - - - - -
30/01:30pm 14.0 ESE 11 15 1006.8 - 0.0 - - - - - - -
30/01:00pm 14.0 SE 10 13 1007.1 - 0.0 - - - - - - -
30/12:30pm 12.7 E 6 9 1007.2 - 0.0 - - - - - - -
30/12:00pm 12.4 SE 10 13 1007.2 - 0.0 - - - - - - -
30/11:30am 12.6 SE 10 12 1007.4 - 0.0 - - - - - - -
30/11:00am 12.4 SE 11 15 1007.5 - 0.0 - - - - - - -
30/10:30am 13.9 S 7 9 1007.3 - 0.0 - - - - - - -
30/10:00am 14.4 NW 8 12 1007.2 - 0.0 - - - - - - -
30/09:30am 13.8 NW 11 16 1007.0 - 0.0 - - - - - - -
30/09:00am 13.7 NNW 10 16 1007.0 - 0.0 - - - - - - -
30/08:30am 13.7 NW 10 14 1007.0 - 0.0 - - - - - - -
30/08:00am 13.1 NNW 7 10 1007.0 - 0.0 - - - - - - -
30/07:30am 12.9 NNW 8 11 1006.8 - 0.0 - - - - - - -
30/07:00am 12.6 NNE 5 7 1006.7 - 0.0 - - - - - - -
30/06:30am 11.7 NNE 3 7 1006.5 - 0.0 - - - - - - -
30/06:00am 11.5 NNW 12 18 1005.9 - 0.0 - - - - - - -
30/05:30am 11.4 NNW 13 18 1005.8 - 0.0 - - - - - - -
30/05:00am 11.7 NNW 13 18 1005.8 - 0.0 - - - - - - -
30/04:30am 11.8 NNW 12 16 1005.9 - 0.0 - - - - - - -
30/04:00am 12.2 N 11 16 1006.1 - 0.0 - - - - - - -
30/03:30am 12.6 N 13 19 1005.9 - 0.0 - - - - - - -
30/03:00am 13.0 N 14 21 1006.2 - 0.0 - - - - - - -
30/02:30am 13.2 N 13 20 1005.9 - 0.0 - - - - - - -
30/02:00am 13.2 NNW 12 18 1006.1 - 0.0 - - - - - - -
30/01:30am 13.2 NNW 12 23 1006.4 - 0.0 - - - - - - -
30/01:00am 13.1 NW 13 24 1006.5 - 0.0 - - - - - - -
30/12:30am 13.6 NNW 13 21 1006.6 - 0.0 - - - - - - -
30/12:00am 13.5 NW 11 19 1006.6 - 0.0 - - - - - - -
 
Date/Time
EDT
Temp

°C
Wind Pressure Rain
since 9am
mm
Weather Cloud Vis
km
Sea
Height
m
Swell
Dir
 
Speed
knots
Gust
knots
hPa Trend Height
m
Period
s
Dir
29/11:30pm 14.0 NW 12 21 1006.7 - 0.0 - - - - - - -
29/11:06pm 14.1 NW 15 25 1006.9 - 0.0 - - - - - - -
29/11:00pm 14.1 NW 16 25 1006.8 - 0.0 - - - - - - -
29/10:56pm 14.1 NW 15 25 1006.8 - 0.0 - - - - - - -
29/10:30pm 13.8 NNW 14 20 1006.8 - 0.0 - - - - - - -
29/10:00pm 14.0 NNW 13 21 1006.7 - 0.0 - - - - - - -
29/09:30pm 14.3 NW 11 22 1006.8 - 0.0 - - - - - - -
29/09:00pm 14.4 NW 11 17 1006.6 - 0.0 - - - - - - -
29/08:39pm 14.6 NW 15 32 1006.5 - 0.0 - - - - - - -
29/08:30pm 14.5 NW 13 22 1006.4 - 0.0 - - - - - - -
29/08:00pm 14.9 NW 12 19 1006.3 - 0.0 - - - - - - -
29/07:30pm 15.4 NW 17 28 1005.8 - 0.0 - - - - - - -
29/07:08pm 15.7 NW 15 26 1005.7 - 0.0 - - - - - - -
29/07:00pm 15.9 NW 13 24 1005.7 - 0.0 - - - - - - -
29/06:35pm 16.5 NW 15 25 1005.6 - 0.0 - - - - - - -
29/06:30pm 16.5 NNW 17 25 1005.6 - 0.0 - - - - - - -
29/06:28pm 16.6 WNW 20 27 1005.5 - 0.0 - - - - - - -
29/06:00pm 17.4 NW 17 33 1005.8 - 0.0 - - - - - - -
29/05:30pm 18.6 NW 17 31 1005.8 - 0.0 - - - - - - -
29/05:12pm 18.7 NNW 15 27 1006.0 - 0.0 - - - - - - -
29/05:00pm 19.1 NNW 11 25 1006.1 - 0.0 - - - - - - -
29/04:30pm 19.1 NNW 16 29 1005.7 - 0.0 - - - - - - -
29/04:00pm 19.0 NW 15 28 1005.8 - 0.0 - - - - - - -
29/03:30pm 18.8 NW 19 30 1005.9 - 0.0 - - - - - - -
29/03:00pm 18.6 NNW 16 30 1006.0 - 0.0 - - - - - - -
29/02:32pm 18.0 NNW 16 27 1006.1 - 0.0 - - - - - - -
29/02:30pm 18.1 NNW 17 26 1006.2 - 0.0 - - - - - - -
29/02:01pm 18.2 NNW 15 26 1006.5 - 0.0 - - - - - - -
29/02:00pm 18.5 NNW 14 22 1006.4 - 0.0 - - - - - - -
29/01:30pm 16.1 NNW 15 25 1007.0 - 0.0 - - - - - - -
29/01:00pm 15.3 NNW 16 27 1007.1 - 0.0 - - - - - - -
29/12:30pm 15.2 NNW 16 26 1007.5 - 0.0 - - - - - - -
29/12:26pm 15.2 NNW 15 26 1007.5 - 0.0 - - - - - - -
29/12:00pm 14.1 NNW 16 25 1007.8 - 0.0 - - - - - - -
29/11:41am 13.6 NW 15 25 1008.3 - 0.0 - - - - - - -
29/11:30am 13.6 NNW 12 18 1008.4 - 0.0 - - - - - - -
29/11:00am 12.9 NNW 13 20 1008.8 - 0.0 - - - - - - -
29/10:30am 12.3 N 13 20 1009.2 - 0.0 - - - - - - -
29/10:00am 12.1 NNW 15 21 1009.4 - 0.0 - - - - - - -
29/09:30am 11.6 NNW 20 29 1009.1 - 0.0 - - - - - - -
29/09:27am 11.8 NNW 18 29 1009.2 - 0.0 - - - - - - -
29/09:00am 12.1 NNW 19 28 1009.0 - 5.8 - - - - - - -
29/08:30am 11.3 NNW 18 26 1009.1 - 5.8 - - - - - - -
29/08:00am 11.1 NNW 18 28 1009.0 - 5.8 - - - - - - -
29/07:31am 10.1 NNW 15 25 1008.9 - 5.8 - - - - - - -
29/07:30am 10.1 NNW 14 22 1008.9 - 5.8 - - - - - - -

Other Formats:

Comma delimited format used in spreadsheet applications
http://www.bom.gov.au/fwo/IDT60701/IDT60701.94970.axf

JavaScript Object Notation format (JSON) in row-major order
http://www.bom.gov.au/fwo/IDT60701/IDT60701.94970.json